This is the latest recevied weather packets stored in our database for station/object DL9SEC-13. If no packets are shown the sender has not sent any weather packets the latest 10 day(s).
| Time | Temp. | Humidity | Pressure | Rain* | Wind** | Luminosity | Snow |
|---|---|---|---|---|---|---|---|
| 1777245903 | 8.33° C | 73% | 1025.1 hPa | 0 mm | - | - | - |
| 1777245003 | 8.33° C | 72% | 1025.2 hPa | 0 mm | - | - | - |
| 1777244103 | 8.33° C | 74% | 1025.2 hPa | 0 mm | - | - | - |
| 1777243203 | 8.33° C | 74% | 1025.1 hPa | 0 mm | - | - | - |
| 1777242303 | 8.33° C | 73% | 1025.1 hPa | 0 mm | - | - | - |
| 1777241403 | 8.89° C | 72% | 1025.1 hPa | 0 mm | - | - | - |
| 1777240504 | 8.89° C | 71% | 1025.1 hPa | 0 mm | - | - | - |
| 1777239603 | 8.89° C | 71% | 1025.3 hPa | 0 mm | - | - | - |
| 1777238703 | 9.44° C | 70% | 1025.2 hPa | 0 mm | - | - | - |
| 1777237804 | 10° C | 69% | 1025.3 hPa | 0 mm | - | - | - |
| 1777236904 | 10.56° C | 68% | 1025.3 hPa | 0 mm | - | - | - |
| 1777236003 | 10.56° C | 67% | 1025.2 hPa | 0 mm | - | - | - |
| 1777235103 | 11.11° C | 64% | 1025.1 hPa | 0 mm | - | - | - |
| 1777234203 | 11.11° C | 65% | 1025.1 hPa | 0 mm | - | - | - |
| 1777233303 | 11.67° C | 64% | 1024.9 hPa | 0 mm | - | - | - |
| 1777232403 | 11.67° C | 64% | 1024.9 hPa | 0 mm | - | - | - |
| 1777231503 | 12.78° C | 58% | 1024.6 hPa | 0 mm | - | - | - |
| 1777230603 | 13.89° C | 50% | 1024.4 hPa | 0 mm | - | - | - |
| 1777229703 | 15° C | 50% | 1024.2 hPa | 0 mm | - | - | - |
| 1777228803 | 16.11° C | 45% | 1024.1 hPa | 0 mm | - | - | - |
| 1777227903 | 17.22° C | 42% | 1023.9 hPa | 0 mm | - | - | - |
| 1777227003 | 18.89° C | 38% | 1023.6 hPa | 0 mm | - | - | - |
| 1777226104 | 19.44° C | 35% | 1023.7 hPa | 0 mm | - | - | - |
| 1777225203 | 20.56° C | 33% | 1023.5 hPa | 0 mm | - | - | - |
| 1777224303 | 21.67° C | 31% | 1023.4 hPa | 0 mm | - | - | - |
* Rain latest hour (hover to see other rain measurements)
** Current wind speed in m/s (hover to see current wind gust speed)